sensor_id;sensor_type;location;lat;lon;timestamp;P1;durP1;ratioP1;P2;durP2;ratioP2
15218;SDS011;15623;53.986;11.676;2023-04-03T00:01:30;9.60;;;2.40;;
15218;SDS011;15623;53.986;11.676;2023-04-03T00:04:00;6.17;;;1.80;;
15218;SDS011;15623;53.986;11.676;2023-04-03T00:06:30;3.40;;;2.00;;
15218;SDS011;15623;53.986;11.676;2023-04-03T00:08:59;3.97;;;2.10;;
15218;SDS011;15623;53.986;11.676;2023-04-03T00:11:28;9.67;;;3.23;;
15218;SDS011;15623;53.986;11.676;2023-04-03T00:13:57;5.70;;;2.10;;
15218;SDS011;15623;53.986;11.676;2023-04-03T00:16:24;3.90;;;2.37;;
15218;SDS011;15623;53.986;11.676;2023-04-03T00:18:56;5.57;;;2.40;;
15218;SDS011;15623;53.986;11.676;2023-04-03T00:24:08;5.83;;;2.10;;
15218;SDS011;15623;53.986;11.676;2023-04-03T00:26:36;5.73;;;2.30;;
15218;SDS011;15623;53.986;11.676;2023-04-03T00:29:06;9.20;;;2.30;;
15218;SDS011;15623;53.986;11.676;2023-04-03T00:31:44;3.70;;;2.10;;
15218;SDS011;15623;53.986;11.676;2023-04-03T00:34:13;5.87;;;1.97;;
15218;SDS011;15623;53.986;11.676;2023-04-03T00:36:52;4.33;;;2.23;;
15218;SDS011;15623;53.986;11.676;2023-04-03T00:39:21;3.97;;;1.93;;
15218;SDS011;15623;53.986;11.676;2023-04-03T00:41:48;8.53;;;2.70;;
15218;SDS011;15623;53.986;11.676;2023-04-03T00:47:10;6.77;;;1.87;;
15218;SDS011;15623;53.986;11.676;2023-04-03T00:49:40;4.07;;;1.93;;
15218;SDS011;15623;53.986;11.676;2023-04-03T00:52:17;4.90;;;2.10;;
15218;SDS011;15623;53.986;11.676;2023-04-03T00:54:54;6.53;;;2.43;;
15218;SDS011;15623;53.986;11.676;2023-04-03T00:57:31;5.17;;;1.90;;
15218;SDS011;15623;53.986;11.676;2023-04-03T01:00:04;5.03;;;2.20;;
15218;SDS011;15623;53.986;11.676;2023-04-03T01:02:36;3.60;;;2.10;;
15218;SDS011;15623;53.986;11.676;2023-04-03T01:05:07;5.40;;;2.20;;
15218;SDS011;15623;53.986;11.676;2023-04-03T01:07:36;3.33;;;1.80;;
15218;SDS011;15623;53.986;11.676;2023-04-03T01:10:09;6.50;;;1.93;;
15218;SDS011;15623;53.986;11.676;2023-04-03T01:12:39;4.67;;;1.53;;
15218;SDS011;15623;53.986;11.676;2023-04-03T01:15:08;3.80;;;2.07;;
15218;SDS011;15623;53.986;11.676;2023-04-03T01:17:42;4.27;;;2.07;;
15218;SDS011;15623;53.986;11.676;2023-04-03T01:20:31;5.13;;;2.30;;
15218;SDS011;15623;53.986;11.676;2023-04-03T01:23:11;8.53;;;2.00;;
15218;SDS011;15623;53.986;11.676;2023-04-03T01:25:49;5.97;;;1.90;;
15218;SDS011;15623;53.986;11.676;2023-04-03T01:28:17;5.17;;;2.00;;
15218;SDS011;15623;53.986;11.676;2023-04-03T01:30:47;3.77;;;1.60;;
15218;SDS011;15623;53.986;11.676;2023-04-03T01:33:25;4.47;;;1.77;;
15218;SDS011;15623;53.986;11.676;2023-04-03T01:35:54;4.70;;;1.83;;
15218;SDS011;15623;53.986;11.676;2023-04-03T01:38:23;3.10;;;1.60;;
15218;SDS011;15623;53.986;11.676;2023-04-03T01:40:50;4.80;;;1.60;;
15218;SDS011;15623;53.986;11.676;2023-04-03T01:43:32;6.23;;;1.83;;
15218;SDS011;15623;53.986;11.676;2023-04-03T01:46:09;5.40;;;1.70;;
15218;SDS011;15623;53.986;11.676;2023-04-03T01:48:38;7.07;;;2.10;;
15218;SDS011;15623;53.986;11.676;2023-04-03T01:53:42;3.63;;;1.33;;
15218;SDS011;15623;53.986;11.676;2023-04-03T01:56:14;2.43;;;1.40;;
15218;SDS011;15623;53.986;11.676;2023-04-03T01:58:44;3.03;;;1.50;;
15218;SDS011;15623;53.986;11.676;2023-04-03T02:01:13;3.60;;;1.50;;
15218;SDS011;15623;53.986;11.676;2023-04-03T02:06:16;4.40;;;1.57;;
15218;SDS011;15623;53.986;11.676;2023-04-03T02:08:56;5.57;;;1.80;;
15218;SDS011;15623;53.986;11.676;2023-04-03T02:11:25;9.23;;;1.77;;
15218;SDS011;15623;53.986;11.676;2023-04-03T02:13:59;4.27;;;1.60;;
15218;SDS011;15623;53.986;11.676;2023-04-03T02:16:26;6.37;;;1.70;;
15218;SDS011;15623;53.986;11.676;2023-04-03T02:18:58;4.40;;;1.60;;
15218;SDS011;15623;53.986;11.676;2023-04-03T02:21:40;5.30;;;1.40;;
15218;SDS011;15623;53.986;11.676;2023-04-03T02:24:09;4.77;;;1.70;;
15218;SDS011;15623;53.986;11.676;2023-04-03T02:26:36;4.47;;;1.30;;
15218;SDS011;15623;53.986;11.676;2023-04-03T02:29:04;7.10;;;2.20;;
15218;SDS011;15623;53.986;11.676;2023-04-03T02:31:32;8.00;;;1.70;;
15218;SDS011;15623;53.986;11.676;2023-04-03T02:34:07;6.00;;;1.30;;
15218;SDS011;15623;53.986;11.676;2023-04-03T02:36:38;3.87;;;1.30;;
15218;SDS011;15623;53.986;11.676;2023-04-03T02:39:07;4.33;;;1.90;;
15218;SDS011;15623;53.986;11.676;2023-04-03T02:41:39;4.07;;;1.50;;
15218;SDS011;15623;53.986;11.676;2023-04-03T02:44:20;3.33;;;1.63;;
15218;SDS011;15623;53.986;11.676;2023-04-03T02:46:48;4.77;;;1.70;;
15218;SDS011;15623;53.986;11.676;2023-04-03T02:49:27;3.63;;;1.70;;
15218;SDS011;15623;53.986;11.676;2023-04-03T02:52:01;4.37;;;1.40;;
15218;SDS011;15623;53.986;11.676;2023-04-03T02:54:35;5.20;;;1.37;;
15218;SDS011;15623;53.986;11.676;2023-04-03T02:57:02;2.73;;;1.80;;
15218;SDS011;15623;53.986;11.676;2023-04-03T02:59:30;3.20;;;1.50;;
15218;SDS011;15623;53.986;11.676;2023-04-03T03:01:58;5.67;;;1.93;;
15218;SDS011;15623;53.986;11.676;2023-04-03T03:04:26;6.60;;;1.60;;
15218;SDS011;15623;53.986;11.676;2023-04-03T03:07:08;3.33;;;1.40;;
15218;SDS011;15623;53.986;11.676;2023-04-03T03:09:35;3.57;;;1.30;;
15218;SDS011;15623;53.986;11.676;2023-04-03T03:12:03;2.40;;;1.30;;
15218;SDS011;15623;53.986;11.676;2023-04-03T03:14:46;3.53;;;1.40;;
15218;SDS011;15623;53.986;11.676;2023-04-03T03:17:14;4.87;;;1.43;;
15218;SDS011;15623;53.986;11.676;2023-04-03T03:19:41;3.33;;;1.30;;
15218;SDS011;15623;53.986;11.676;2023-04-03T03:22:19;4.77;;;1.40;;
15218;SDS011;15623;53.986;11.676;2023-04-03T03:24:53;2.77;;;1.60;;
15218;SDS011;15623;53.986;11.676;2023-04-03T03:30:13;5.07;;;1.83;;
15218;SDS011;15623;53.986;11.676;2023-04-03T03:32:41;2.87;;;1.30;;
15218;SDS011;15623;53.986;11.676;2023-04-03T03:38:05;3.53;;;1.67;;
15218;SDS011;15623;53.986;11.676;2023-04-03T03:40:46;3.97;;;1.37;;
15218;SDS011;15623;53.986;11.676;2023-04-03T03:46:09;3.23;;;1.50;;
15218;SDS011;15623;53.986;11.676;2023-04-03T03:48:38;1.83;;;1.17;;
15218;SDS011;15623;53.986;11.676;2023-04-03T03:51:14;3.63;;;2.17;;
15218;SDS011;15623;53.986;11.676;2023-04-03T03:53:47;3.43;;;1.20;;
15218;SDS011;15623;53.986;11.676;2023-04-03T03:56:21;5.67;;;1.37;;
15218;SDS011;15623;53.986;11.676;2023-04-03T03:58:53;4.10;;;1.57;;
15218;SDS011;15623;53.986;11.676;2023-04-03T04:01:34;3.97;;;1.10;;
15218;SDS011;15623;53.986;11.676;2023-04-03T04:04:10;1.93;;;1.30;;
15218;SDS011;15623;53.986;11.676;2023-04-03T04:06:38;5.33;;;1.50;;
15218;SDS011;15623;53.986;11.676;2023-04-03T04:09:16;3.53;;;1.40;;
15218;SDS011;15623;53.986;11.676;2023-04-03T04:14:45;2.80;;;1.20;;
15218;SDS011;15623;53.986;11.676;2023-04-03T04:17:27;3.47;;;1.37;;
15218;SDS011;15623;53.986;11.676;2023-04-03T04:20:16;5.30;;;1.70;;
15218;SDS011;15623;53.986;11.676;2023-04-03T04:23:06;1.90;;;1.30;;
15218;SDS011;15623;53.986;11.676;2023-04-03T04:38:05;3.63;;;1.40;;
15218;SDS011;15623;53.986;11.676;2023-04-03T04:40:53;3.87;;;1.30;;
15218;SDS011;15623;53.986;11.676;2023-04-03T04:43:26;3.53;;;1.30;;
15218;SDS011;15623;53.986;11.676;2023-04-03T04:46:07;2.40;;;1.30;;
15218;SDS011;15623;53.986;11.676;2023-04-03T04:48:52;1.47;;;1.10;;
15218;SDS011;15623;53.986;11.676;2023-04-03T05:48:39;2.77;;;1.50;;
15218;SDS011;15623;53.986;11.676;2023-04-03T05:51:13;3.50;;;1.30;;
15218;SDS011;15623;53.986;11.676;2023-04-03T05:53:44;3.87;;;1.20;;
15218;SDS011;15623;53.986;11.676;2023-04-03T05:56:22;2.10;;;1.33;;
15218;SDS011;15623;53.986;11.676;2023-04-03T06:01:37;3.70;;;1.20;;
15218;SDS011;15623;53.986;11.676;2023-04-03T06:04:14;3.07;;;1.20;;
15218;SDS011;15623;53.986;11.676;2023-04-03T06:41:10;3.13;;;1.53;;
15218;SDS011;15623;53.986;11.676;2023-04-03T10:47:48;1.08;;;0.73;;
15218;SDS011;15623;53.986;11.676;2023-04-03T10:50:56;0.75;;;0.60;;
15218;SDS011;15623;53.986;11.676;2023-04-03T10:54:18;1.10;;;0.57;;
15218;SDS011;15623;53.986;11.676;2023-04-03T12:26:40;0.75;;;0.47;;
15218;SDS011;15623;53.986;11.676;2023-04-03T12:32:00;3.25;;;0.85;;
15218;SDS011;15623;53.986;11.676;2023-04-03T12:36:59;3.17;;;0.80;;
15218;SDS011;15623;53.986;11.676;2023-04-03T12:43:00;1.65;;;0.70;;
15218;SDS011;15623;53.986;11.676;2023-04-03T12:48:52;2.72;;;0.80;;
15218;SDS011;15623;53.986;11.676;2023-04-03T12:51:31;1.15;;;0.50;;
15218;SDS011;15623;53.986;11.676;2023-04-03T12:56:53;1.58;;;0.90;;
15218;SDS011;15623;53.986;11.676;2023-04-03T13:02:55;1.92;;;0.90;;
15218;SDS011;15623;53.986;11.676;2023-04-03T13:05:27;2.20;;;1.15;;
15218;SDS011;15623;53.986;11.676;2023-04-03T13:22:59;2.28;;;0.90;;
15218;SDS011;15623;53.986;11.676;2023-04-03T13:25:48;3.40;;;1.23;;
15218;SDS011;15623;53.986;11.676;2023-04-03T13:34:50;1.47;;;0.80;;
15218;SDS011;15623;53.986;11.676;2023-04-03T13:40:48;2.47;;;1.30;;
15218;SDS011;15623;53.986;11.676;2023-04-03T13:43:28;5.23;;;1.20;;
15218;SDS011;15623;53.986;11.676;2023-04-03T13:46:20;4.33;;;1.40;;
15218;SDS011;15623;53.986;11.676;2023-04-03T13:49:16;1.70;;;1.03;;
15218;SDS011;15623;53.986;11.676;2023-04-03T13:51:53;3.20;;;0.97;;
15218;SDS011;15623;53.986;11.676;2023-04-03T13:54:51;2.60;;;1.00;;
15218;SDS011;15623;53.986;11.676;2023-04-03T14:01:01;1.40;;;1.00;;
15218;SDS011;15623;53.986;11.676;2023-04-03T14:09:19;4.67;;;1.10;;
15218;SDS011;15623;53.986;11.676;2023-04-03T14:21:23;4.33;;;2.00;;
15218;SDS011;15623;53.986;11.676;2023-04-03T14:24:22;3.10;;;1.20;;
15218;SDS011;15623;53.986;11.676;2023-04-03T14:27:29;2.50;;;1.50;;
15218;SDS011;15623;53.986;11.676;2023-04-03T14:30:00;3.37;;;1.00;;
15218;SDS011;15623;53.986;11.676;2023-04-03T14:32:36;3.73;;;0.90;;
15218;SDS011;15623;53.986;11.676;2023-04-03T14:35:16;3.77;;;0.90;;
15218;SDS011;15623;53.986;11.676;2023-04-03T14:37:46;2.27;;;1.20;;
15218;SDS011;15623;53.986;11.676;2023-04-03T14:40:23;1.37;;;0.90;;
15218;SDS011;15623;53.986;11.676;2023-04-03T14:42:57;2.73;;;1.00;;
15218;SDS011;15623;53.986;11.676;2023-04-03T14:45:28;4.03;;;0.93;;
15218;SDS011;15623;53.986;11.676;2023-04-03T14:47:57;2.47;;;1.10;;
15218;SDS011;15623;53.986;11.676;2023-04-03T14:50:34;4.30;;;1.07;;
15218;SDS011;15623;53.986;11.676;2023-04-03T14:53:09;3.17;;;1.13;;
15218;SDS011;15623;53.986;11.676;2023-04-03T14:55:41;3.13;;;0.93;;
15218;SDS011;15623;53.986;11.676;2023-04-03T14:58:14;1.63;;;1.00;;
15218;SDS011;15623;53.986;11.676;2023-04-03T15:00:43;2.17;;;1.03;;
15218;SDS011;15623;53.986;11.676;2023-04-03T15:03:14;3.50;;;1.00;;
15218;SDS011;15623;53.986;11.676;2023-04-03T15:05:43;1.57;;;1.10;;
15218;SDS011;15623;53.986;11.676;2023-04-03T15:23:02;4.57;;;1.30;;
15218;SDS011;15623;53.986;11.676;2023-04-03T15:25:32;1.60;;;1.10;;
15218;SDS011;15623;53.986;11.676;2023-04-03T15:30:55;10.57;;;5.27;;
15218;SDS011;15623;53.986;11.676;2023-04-03T15:33:30;3.40;;;1.80;;
15218;SDS011;15623;53.986;11.676;2023-04-03T15:35:59;3.93;;;1.50;;
15218;SDS011;15623;53.986;11.676;2023-04-03T15:38:28;4.23;;;3.30;;
15218;SDS011;15623;53.986;11.676;2023-04-03T15:41:03;3.57;;;2.73;;
15218;SDS011;15623;53.986;11.676;2023-04-03T15:43:31;2.20;;;0.93;;
15218;SDS011;15623;53.986;11.676;2023-04-03T15:46:14;2.27;;;1.20;;
15218;SDS011;15623;53.986;11.676;2023-04-03T15:53:55;2.27;;;1.23;;
15218;SDS011;15623;53.986;11.676;2023-04-03T15:56:35;2.53;;;1.37;;
15218;SDS011;15623;53.986;11.676;2023-04-03T15:59:06;5.03;;;1.50;;
15218;SDS011;15623;53.986;11.676;2023-04-03T16:01:35;4.23;;;1.40;;
15218;SDS011;15623;53.986;11.676;2023-04-03T16:04:12;2.47;;;1.03;;
15218;SDS011;15623;53.986;11.676;2023-04-03T16:06:44;4.60;;;1.00;;
15218;SDS011;15623;53.986;11.676;2023-04-03T16:09:17;2.63;;;1.20;;
15218;SDS011;15623;53.986;11.676;2023-04-03T16:14:54;2.03;;;1.20;;
15218;SDS011;15623;53.986;11.676;2023-04-03T16:17:27;1.67;;;1.10;;
15218;SDS011;15623;53.986;11.676;2023-04-03T16:22:40;2.83;;;1.13;;
15218;SDS011;15623;53.986;11.676;2023-04-03T16:34:30;2.80;;;1.20;;
15218;SDS011;15623;53.986;11.676;2023-04-03T16:37:27;1.67;;;0.90;;
15218;SDS011;15623;53.986;11.676;2023-04-03T16:40:15;1.30;;;1.20;;
15218;SDS011;15623;53.986;11.676;2023-04-03T16:42:52;3.20;;;1.13;;
15218;SDS011;15623;53.986;11.676;2023-04-03T16:45:46;1.30;;;1.10;;
15218;SDS011;15623;53.986;11.676;2023-04-03T16:48:29;2.10;;;0.93;;
15218;SDS011;15623;53.986;11.676;2023-04-03T16:51:25;2.27;;;1.10;;
15218;SDS011;15623;53.986;11.676;2023-04-03T16:53:53;5.17;;;1.30;;
15218;SDS011;15623;53.986;11.676;2023-04-03T16:56:35;2.37;;;1.30;;
15218;SDS011;15623;53.986;11.676;2023-04-03T17:01:51;3.23;;;1.30;;
15218;SDS011;15623;53.986;11.676;2023-04-03T17:04:36;2.20;;;1.60;;
15218;SDS011;15623;53.986;11.676;2023-04-03T17:36:59;1.57;;;1.20;;
15218;SDS011;15623;53.986;11.676;2023-04-03T17:39:43;6.83;;;1.80;;
15218;SDS011;15623;53.986;11.676;2023-04-03T17:42:13;3.67;;;1.70;;
15218;SDS011;15623;53.986;11.676;2023-04-03T17:44:44;3.70;;;1.27;;
15218;SDS011;15623;53.986;11.676;2023-04-03T17:49:55;3.00;;;1.53;;
15218;SDS011;15623;53.986;11.676;2023-04-03T17:52:25;1.73;;;1.63;;
15218;SDS011;15623;53.986;11.676;2023-04-03T17:54:53;2.77;;;1.40;;
15218;SDS011;15623;53.986;11.676;2023-04-03T17:57:22;2.87;;;1.50;;
15218;SDS011;15623;53.986;11.676;2023-04-03T18:03:00;3.33;;;1.50;;
15218;SDS011;15623;53.986;11.676;2023-04-03T18:15:08;4.87;;;3.80;;
15218;SDS011;15623;53.986;11.676;2023-04-03T18:17:47;4.93;;;4.23;;
15218;SDS011;15623;53.986;11.676;2023-04-03T18:22:57;5.17;;;3.13;;
15218;SDS011;15623;53.986;11.676;2023-04-03T18:25:25;3.57;;;2.70;;
15218;SDS011;15623;53.986;11.676;2023-04-03T18:27:53;6.10;;;2.90;;
15218;SDS011;15623;53.986;11.676;2023-04-03T18:30:25;3.70;;;2.30;;
15218;SDS011;15623;53.986;11.676;2023-04-03T18:32:53;4.90;;;1.80;;
15218;SDS011;15623;53.986;11.676;2023-04-03T18:35:22;2.60;;;1.53;;
15218;SDS011;15623;53.986;11.676;2023-04-03T18:37:49;2.33;;;2.00;;
15218;SDS011;15623;53.986;11.676;2023-04-03T18:40:17;2.90;;;2.43;;
15218;SDS011;15623;53.986;11.676;2023-04-03T18:42:53;2.17;;;1.80;;
15218;SDS011;15623;53.986;11.676;2023-04-03T18:45:21;2.43;;;2.13;;
15218;SDS011;15623;53.986;11.676;2023-04-03T19:30:35;4.23;;;1.80;;
15218;SDS011;15623;53.986;11.676;2023-04-03T19:41:14;4.27;;;2.47;;
15218;SDS011;15623;53.986;11.676;2023-04-03T19:52:38;3.20;;;1.60;;
15218;SDS011;15623;53.986;11.676;2023-04-03T19:55:17;2.43;;;1.70;;
15218;SDS011;15623;53.986;11.676;2023-04-03T20:00:44;3.63;;;2.00;;
15218;SDS011;15623;53.986;11.676;2023-04-03T20:05:53;4.40;;;2.50;;
15218;SDS011;15623;53.986;11.676;2023-04-03T20:13:45;4.20;;;2.30;;
15218;SDS011;15623;53.986;11.676;2023-04-03T20:27:42;4.43;;;2.20;;
15218;SDS011;15623;53.986;11.676;2023-04-03T20:49:48;4.57;;;3.80;;
15218;SDS011;15623;53.986;11.676;2023-04-03T20:52:32;8.67;;;4.50;;
15218;SDS011;15623;53.986;11.676;2023-04-03T21:23:35;8.20;;;5.07;;
15218;SDS011;15623;53.986;11.676;2023-04-03T21:26:20;9.27;;;6.97;;
15218;SDS011;15623;53.986;11.676;2023-04-03T21:28:49;7.23;;;5.00;;
15218;SDS011;15623;53.986;11.676;2023-04-03T21:31:19;7.63;;;5.00;;
15218;SDS011;15623;53.986;11.676;2023-04-03T21:34:12;5.77;;;5.07;;
15218;SDS011;15623;53.986;11.676;2023-04-03T21:36:46;7.50;;;4.10;;
15218;SDS011;15623;53.986;11.676;2023-04-03T21:39:15;7.27;;;4.77;;
15218;SDS011;15623;53.986;11.676;2023-04-03T21:44:28;7.13;;;5.07;;
15218;SDS011;15623;53.986;11.676;2023-04-03T21:46:58;6.93;;;4.53;;
15218;SDS011;15623;53.986;11.676;2023-04-03T21:49:43;8.43;;;4.70;;
15218;SDS011;15623;53.986;11.676;2023-04-03T21:52:23;7.23;;;4.47;;
15218;SDS011;15623;53.986;11.676;2023-04-03T21:54:52;9.40;;;4.50;;
15218;SDS011;15623;53.986;11.676;2023-04-03T21:57:25;5.90;;;3.83;;
15218;SDS011;15623;53.986;11.676;2023-04-03T21:59:54;8.23;;;4.23;;
15218;SDS011;15623;53.986;11.676;2023-04-03T22:05:27;6.07;;;4.20;;
15218;SDS011;15623;53.986;11.676;2023-04-03T22:10:58;6.40;;;3.87;;
15218;SDS011;15623;53.986;11.676;2023-04-03T22:13:39;5.67;;;4.00;;
15218;SDS011;15623;53.986;11.676;2023-04-03T22:19:05;6.43;;;4.13;;
15218;SDS011;15623;53.986;11.676;2023-04-03T22:25:02;5.53;;;3.93;;
15218;SDS011;15623;53.986;11.676;2023-04-03T22:27:57;6.80;;;4.17;;
15218;SDS011;15623;53.986;11.676;2023-04-03T22:30:31;6.23;;;4.00;;
